LFRS 301030Z AUTO 09012KT 050V140 CAVOK 24/07 Q1017 NOSIG

ElémentsDécodage
LFRS Station météo située sur l'aérodrome de NANTES Atlantique
301030Z émis le 30 du mois à 10h30 UTC
AUTO Bulletin édité par un automate
09012KT vent du 090°, 12 noeuds
050V140 vent de direction variable entre 050° et 140°
CAVOK Ceiling And Visibility OK
- Visibilité de 10 Km ou plus
- Pas de nuage au-dessous de 1500m ou au-dessous de l'altitude minimale du secteur la plus élevée (si>1500m) et absence de CB
- pas de temps présent significatif
24/07 température 24°C, point de rosée 07°C
 soit une humidité relative de 34%
Q1017 la pression au niveau de la mer (QNH) est de 1017 hPa
NOSIG Pas de changement significatif prévu au cours des deux heures suivant l'heure de l'observation